LIME/BGY METAR and TAF weather

Enter ICAO airport designator
Station Type Date Time Source
LIME METAR 2020/07/08 01:20 UTC NOAA

LIME 080120Z 01004KT 9999 FEW060 18/14 Q1018 NOSIG


Station Type Date Time Source
LIME Decoded METAR 2020/07/08 01:20 UTC NOAA

Bergamo / Orio Al Serio, Italy (LIME) 45-40N 009-42E 237M
Jul 07, 2020 - 09:20 PM EDT / 2020.07.08 0120 UTC
Wind: from the N (010 degrees) at 5 MPH (4 KT):0
Visibility: greater than 7 mile(s):0
Sky conditions: mostly clear
Temperature: 64 F (18 C)
Dew Point: 57 F (14 C)
Relative Humidity: 77%
Pressure (altimeter): 30.06 in. Hg (1018 hPa)
ob: LIME 080120Z 01004KT 9999 FEW060 18/14 Q1018 NOSIG
cycle: 1

Station Type Date Time Source
LIME TAF 2020/07/07 18:21 UTC NOAA

TAF LIME 071700Z 0718/0818 VRB05KT 9999 FEW040
BECMG 0807/0809 11010KT
BECMG 0816/0818 VRB05KT

Example: see airport list